sensor_id;sensor_type;location;lat;lon;timestamp;pressure;altitude;pressure_sealevel;temperature;humidity
65157;BME280;52745;49.794;18.258;2022-09-23T00:01:00;-16148.88;;;7.92;95.79
65157;BME280;52745;49.794;18.258;2022-09-23T00:03:35;-16146.97;;;7.85;96.15
65157;BME280;52745;49.794;18.258;2022-09-23T00:06:08;-16146.44;;;7.83;95.95
65157;BME280;52745;49.794;18.258;2022-09-23T00:08:37;-16142.19;;;7.67;96.66
65157;BME280;52745;49.794;18.258;2022-09-23T00:11:08;-16140.84;;;7.62;97.34
65157;BME280;52745;49.794;18.258;2022-09-23T00:13:38;-16139.59;;;7.57;97.42
65157;BME280;52745;49.794;18.258;2022-09-23T00:16:10;-16138.50;;;7.53;97.39
65157;BME280;52745;49.794;18.258;2022-09-23T00:18:37;-16137.81;;;7.51;97.28
65157;BME280;52745;49.794;18.258;2022-09-23T00:21:04;-16135.38;;;7.41;97.85
65157;BME280;52745;49.794;18.258;2022-09-23T00:23:32;-16132.91;;;7.32;98.29
65157;BME280;52745;49.794;18.258;2022-09-23T00:26:01;-16134.13;;;7.37;98.17
65157;BME280;52745;49.794;18.258;2022-09-23T00:28:28;-16134.41;;;7.38;97.94
65157;BME280;52745;49.794;18.258;2022-09-23T00:30:55;-16132.91;;;7.32;98.05
65157;BME280;52745;49.794;18.258;2022-09-23T00:33:22;-16131.13;;;7.25;97.75
65157;BME280;52745;49.794;18.258;2022-09-23T00:35:48;-16130.44;;;7.23;97.74
65157;BME280;52745;49.794;18.258;2022-09-23T00:38:15;-16130.72;;;7.24;97.36
65157;BME280;52745;49.794;18.258;2022-09-23T00:40:45;-16129.78;;;7.20;97.26
65157;BME280;52745;49.794;18.258;2022-09-23T00:43:12;-16127.31;;;7.11;97.24
65157;BME280;52745;49.794;18.258;2022-09-23T00:45:46;-16127.03;;;7.10;97.32
65157;BME280;52745;49.794;18.258;2022-09-23T00:48:16;-16124.44;;;7.00;97.40
65157;BME280;52745;49.794;18.258;2022-09-23T00:50:48;-16124.56;;;7.01;97.67
65157;BME280;52745;49.794;18.258;2022-09-23T00:53:19;-16122.38;;;6.93;97.66
65157;BME280;52745;49.794;18.258;2022-09-23T00:55:51;-16122.13;;;6.92;97.71
65157;BME280;52745;49.794;18.258;2022-09-23T00:58:22;-16121.31;;;6.89;97.71
65157;BME280;52745;49.794;18.258;2022-09-23T01:00:53;-16120.88;;;6.87;97.51
65157;BME280;52745;49.794;18.258;2022-09-23T01:03:20;-16119.94;;;6.83;97.71
65157;BME280;52745;49.794;18.258;2022-09-23T01:05:48;-16120.47;;;6.86;97.77
65157;BME280;52745;49.794;18.258;2022-09-23T01:08:15;-16119.66;;;6.82;97.75
65157;BME280;52745;49.794;18.258;2022-09-23T01:11:01;-16118.84;;;6.79;97.85
65157;BME280;52745;49.794;18.258;2022-09-23T01:16:38;-16118.56;;;6.78;97.66
65157;BME280;52745;49.794;18.258;2022-09-23T01:19:33;-16116.78;;;6.72;98.24
65157;BME280;52745;49.794;18.258;2022-09-23T01:22:09;-16116.66;;;6.71;97.92
65157;BME280;52745;49.794;18.258;2022-09-23T01:32:49;-16111.19;;;6.51;98.41
65157;BME280;52745;49.794;18.258;2022-09-23T01:41:04;-16111.31;;;6.51;98.44
65157;BME280;52745;49.794;18.258;2022-09-23T01:44:01;-16110.78;;;6.49;98.09
65157;BME280;52745;49.794;18.258;2022-09-23T01:46:48;-16111.19;;;6.51;97.91
65157;BME280;52745;49.794;18.258;2022-09-23T01:49:27;-16109.56;;;6.45;98.05
65157;BME280;52745;49.794;18.258;2022-09-23T01:52:23;-16107.63;;;6.37;98.39
65157;BME280;52745;49.794;18.258;2022-09-23T01:54:51;-16107.63;;;6.37;98.77
65157;BME280;52745;49.794;18.258;2022-09-23T01:57:33;-16107.63;;;6.37;98.81
65157;BME280;52745;49.794;18.258;2022-09-23T02:00:22;-16106.81;;;6.34;98.73
65157;BME280;52745;49.794;18.258;2022-09-23T02:03:18;-16106.00;;;6.31;99.17
65157;BME280;52745;49.794;18.258;2022-09-23T02:05:57;-16107.78;;;6.38;98.83
65157;BME280;52745;49.794;18.258;2022-09-23T02:08:54;-16109.13;;;6.43;98.35
65157;BME280;52745;49.794;18.258;2022-09-23T02:11:22;-16109.81;;;6.46;98.26
65157;BME280;52745;49.794;18.258;2022-09-23T02:14:00;-16108.31;;;6.40;98.15
65157;BME280;52745;49.794;18.258;2022-09-23T02:16:34;-16107.38;;;6.36;98.32
65157;BME280;52745;49.794;18.258;2022-09-23T02:19:08;-16106.81;;;6.34;98.41
65157;BME280;52745;49.794;18.258;2022-09-23T02:21:45;-16106.28;;;6.32;98.57
65157;BME280;52745;49.794;18.258;2022-09-23T02:24:17;-16107.91;;;6.38;98.39
65157;BME280;52745;49.794;18.258;2022-09-23T02:29:56;-16108.31;;;6.40;98.12
65157;BME280;52745;49.794;18.258;2022-09-23T02:35:33;-16107.50;;;6.37;98.11
65157;BME280;52745;49.794;18.258;2022-09-23T02:40:44;-16106.13;;;6.32;98.04
65157;BME280;52745;49.794;18.258;2022-09-23T02:43:33;-16106.81;;;6.34;98.02
65157;BME280;52745;49.794;18.258;2022-09-23T02:46:02;-16103.81;;;6.23;98.31
65157;BME280;52745;49.794;18.258;2022-09-23T02:48:33;-16104.22;;;6.25;98.42
65157;BME280;52745;49.794;18.258;2022-09-23T02:51:03;-16104.50;;;6.26;98.48
65157;BME280;52745;49.794;18.258;2022-09-23T02:53:31;-16105.19;;;6.28;98.64
65157;BME280;52745;49.794;18.258;2022-09-23T02:56:01;-16105.72;;;6.30;98.17
65157;BME280;52745;49.794;18.258;2022-09-23T02:58:28;-16104.34;;;6.25;98.47
65157;BME280;52745;49.794;18.258;2022-09-23T03:01:25;-16106.81;;;6.34;98.34
65157;BME280;52745;49.794;18.258;2022-09-23T03:23:35;-16105.72;;;6.30;98.31
65157;BME280;52745;49.794;18.258;2022-09-23T03:26:09;-16107.09;;;6.35;98.08
65157;BME280;52745;49.794;18.258;2022-09-23T03:28:39;-16107.22;;;6.36;98.01
65157;BME280;52745;49.794;18.258;2022-09-23T03:31:10;-16109.13;;;6.43;97.75
65157;BME280;52745;49.794;18.258;2022-09-23T03:33:42;-16109.81;;;6.46;97.33
65157;BME280;52745;49.794;18.258;2022-09-23T03:36:12;-16111.72;;;6.53;96.58
65157;BME280;52745;49.794;18.258;2022-09-23T03:39:05;-16108.59;;;6.41;96.85
65157;BME280;52745;49.794;18.258;2022-09-23T03:41:38;-16109.13;;;6.43;97.05
65157;BME280;52745;49.794;18.258;2022-09-23T03:44:08;-16107.38;;;6.36;97.23
65157;BME280;52745;49.794;18.258;2022-09-23T03:46:36;-16106.28;;;6.32;97.53
65157;BME280;52745;49.794;18.258;2022-09-23T03:49:11;-16107.63;;;6.37;97.21
65157;BME280;52745;49.794;18.258;2022-09-23T03:51:39;-16104.78;;;6.27;97.06
65157;BME280;52745;49.794;18.258;2022-09-23T03:54:06;-16104.63;;;6.26;97.13
65157;BME280;52745;49.794;18.258;2022-09-23T03:56:32;-16102.84;;;6.19;97.15
65157;BME280;52745;49.794;18.258;2022-09-23T03:58:59;-16102.44;;;6.18;97.54
65157;BME280;52745;49.794;18.258;2022-09-23T04:01:25;-16102.16;;;6.17;98.04
65157;BME280;52745;49.794;18.258;2022-09-23T04:03:52;-16104.22;;;6.25;97.80
65157;BME280;52745;49.794;18.258;2022-09-23T04:06:19;-16105.31;;;6.29;98.15
65157;BME280;52745;49.794;18.258;2022-09-23T04:08:45;-16107.91;;;6.38;98.53
65157;BME280;52745;49.794;18.258;2022-09-23T04:11:12;-16110.22;;;6.47;97.65
65157;BME280;52745;49.794;18.258;2022-09-23T04:13:38;-16113.38;;;6.59;96.74
65157;BME280;52745;49.794;18.258;2022-09-23T04:16:05;-16114.75;;;6.64;96.66
65157;BME280;52745;49.794;18.258;2022-09-23T04:18:32;-16117.59;;;6.75;95.84
65157;BME280;52745;49.794;18.258;2022-09-23T04:20:59;-16118.69;;;6.79;95.51
65157;BME280;52745;49.794;18.258;2022-09-23T04:23:26;-16116.50;;;6.71;96.14
65157;BME280;52745;49.794;18.258;2022-09-23T04:25:53;-16117.34;;;6.74;96.45
65157;BME280;52745;49.794;18.258;2022-09-23T04:28:20;-16116.38;;;6.70;95.71
65157;BME280;52745;49.794;18.258;2022-09-23T04:30:47;-16116.94;;;6.72;95.80
65157;BME280;52745;49.794;18.258;2022-09-23T04:33:14;-16115.00;;;6.65;95.45
65157;BME280;52745;49.794;18.258;2022-09-23T04:35:41;-16116.78;;;6.72;95.51
65157;BME280;52745;49.794;18.258;2022-09-23T04:38:10;-16116.50;;;6.71;94.98
65157;BME280;52745;49.794;18.258;2022-09-23T04:40:37;-16117.47;;;6.74;94.78
65157;BME280;52745;49.794;18.258;2022-09-23T04:43:04;-16117.06;;;6.73;94.96
65157;BME280;52745;49.794;18.258;2022-09-23T04:45:30;-16119.53;;;6.82;94.81
65157;BME280;52745;49.794;18.258;2022-09-23T04:47:57;-16120.47;;;6.86;94.58
65157;BME280;52745;49.794;18.258;2022-09-23T04:50:24;-16120.06;;;6.84;94.91
65157;BME280;52745;49.794;18.258;2022-09-23T04:52:52;-16122.13;;;6.92;95.01
65157;BME280;52745;49.794;18.258;2022-09-23T04:55:19;-16124.16;;;6.99;94.54
65157;BME280;52745;49.794;18.258;2022-09-23T04:57:46;-16126.50;;;7.08;95.21
65157;BME280;52745;49.794;18.258;2022-09-23T05:00:12;-16125.41;;;7.04;94.72
65157;BME280;52745;49.794;18.258;2022-09-23T05:02:44;-16127.19;;;7.11;94.94
65157;BME280;52745;49.794;18.258;2022-09-23T05:05:12;-16128.13;;;7.14;94.56
65157;BME280;52745;49.794;18.258;2022-09-23T05:07:39;-16127.19;;;7.11;94.92
65157;BME280;52745;49.794;18.258;2022-09-23T05:10:06;-16128.41;;;7.15;94.63
65157;BME280;52745;49.794;18.258;2022-09-23T05:12:33;-16126.50;;;7.08;95.17
65157;BME280;52745;49.794;18.258;2022-09-23T05:14:59;-16124.31;;;7.00;95.23
65157;BME280;52745;49.794;18.258;2022-09-23T05:17:25;-16125.81;;;7.05;95.27
65157;BME280;52745;49.794;18.258;2022-09-23T05:19:55;-16127.03;;;7.10;95.13
65157;BME280;52745;49.794;18.258;2022-09-23T05:22:23;-16127.59;;;7.12;94.96
65157;BME280;52745;49.794;18.258;2022-09-23T05:24:52;-16127.59;;;7.12;94.68
65157;BME280;52745;49.794;18.258;2022-09-23T05:27:19;-16129.63;;;7.20;94.52
65157;BME280;52745;49.794;18.258;2022-09-23T05:29:47;-16129.22;;;7.18;96.96
65157;BME280;52745;49.794;18.258;2022-09-23T05:32:14;-16127.59;;;7.12;96.62
65157;BME280;52745;49.794;18.258;2022-09-23T05:34:41;-16127.84;;;7.13;95.98
65157;BME280;52745;49.794;18.258;2022-09-23T05:37:08;-16128.41;;;7.15;96.17
65157;BME280;52745;49.794;18.258;2022-09-23T05:39:35;-16131.97;;;7.29;96.19
65157;BME280;52745;49.794;18.258;2022-09-23T05:42:02;-16134.00;;;7.36;94.43
65157;BME280;52745;49.794;18.258;2022-09-23T05:44:28;-16134.81;;;7.39;94.50
65157;BME280;52745;49.794;18.258;2022-09-23T05:46:55;-16137.81;;;7.51;94.13
65157;BME280;52745;49.794;18.258;2022-09-23T05:49:21;-16139.88;;;7.58;94.30
65157;BME280;52745;49.794;18.258;2022-09-23T05:51:48;-16141.94;;;7.66;93.77
65157;BME280;52745;49.794;18.258;2022-09-23T05:54:14;-16145.19;;;7.78;93.61
65157;BME280;52745;49.794;18.258;2022-09-23T05:56:41;-16147.66;;;7.87;93.12
65157;BME280;52745;49.794;18.258;2022-09-23T05:59:07;-16150.81;;;7.99;93.08
65157;BME280;52745;49.794;18.258;2022-09-23T06:01:34;-16155.31;;;8.16;92.79
65157;BME280;52745;49.794;18.258;2022-09-23T06:04:03;-16156.53;;;8.21;92.07
65157;BME280;52745;49.794;18.258;2022-09-23T06:06:36;-16155.16;;;8.16;92.44
65157;BME280;52745;49.794;18.258;2022-09-23T06:09:05;-16153.81;;;8.11;92.26
65157;BME280;52745;49.794;18.258;2022-09-23T06:11:33;-16154.06;;;8.12;91.97
65157;BME280;52745;49.794;18.258;2022-09-23T06:14:00;-16154.06;;;8.12;92.39
65157;BME280;52745;49.794;18.258;2022-09-23T06:16:33;-16155.56;;;8.17;91.72
65157;BME280;52745;49.794;18.258;2022-09-23T06:19:00;-16160.22;;;8.35;91.43
65157;BME280;52745;49.794;18.258;2022-09-23T06:21:32;-16162.81;;;8.44;90.84
65157;BME280;52745;49.794;18.258;2022-09-23T06:23:59;-16167.59;;;8.62;89.85
65157;BME280;52745;49.794;18.258;2022-09-23T06:26:25;-16173.72;;;8.85;89.51
65157;BME280;52745;49.794;18.258;2022-09-23T06:28:52;-16174.00;;;8.86;88.94
65157;BME280;52745;49.794;18.258;2022-09-23T06:31:19;-16175.91;;;8.94;88.21
65157;BME280;52745;49.794;18.258;2022-09-23T06:33:45;-16175.38;;;8.91;87.33
65157;BME280;52745;49.794;18.258;2022-09-23T06:36:12;-16175.22;;;8.91;87.45
65157;BME280;52745;49.794;18.258;2022-09-23T06:38:41;-16174.28;;;8.87;87.23
65157;BME280;52745;49.794;18.258;2022-09-23T06:41:10;-16176.47;;;8.96;86.64
65157;BME280;52745;49.794;18.258;2022-09-23T06:43:37;-16178.91;;;9.05;85.48
65157;BME280;52745;49.794;18.258;2022-09-23T06:46:05;-16182.75;;;9.19;84.84
65157;BME280;52745;49.794;18.258;2022-09-23T06:48:32;-16179.34;;;9.06;85.20
65157;BME280;52745;49.794;18.258;2022-09-23T06:51:02;-16181.91;;;9.16;85.38
65157;BME280;52745;49.794;18.258;2022-09-23T06:53:30;-16183.84;;;9.23;85.12
65157;BME280;52745;49.794;18.258;2022-09-23T06:56:02;-16183.84;;;9.23;84.35
65157;BME280;52745;49.794;18.258;2022-09-23T06:58:30;-16186.84;;;9.35;84.64
65157;BME280;52745;49.794;18.258;2022-09-23T07:01:01;-16186.28;;;9.32;83.87
65157;BME280;52745;49.794;18.258;2022-09-23T07:03:28;-16190.25;;;9.47;83.56
65157;BME280;52745;49.794;18.258;2022-09-23T07:05:57;-16194.19;;;9.62;83.15
65157;BME280;52745;49.794;18.258;2022-09-23T07:08:24;-16188.75;;;9.42;83.09
65157;BME280;52745;49.794;18.258;2022-09-23T07:10:57;-16191.59;;;9.52;83.00
65157;BME280;52745;49.794;18.258;2022-09-23T07:13:25;-16200.59;;;9.86;82.07
65157;BME280;52745;49.794;18.258;2022-09-23T07:15:56;-16203.75;;;9.98;80.01
65157;BME280;52745;49.794;18.258;2022-09-23T07:18:24;-16207.84;;;10.13;79.37
65157;BME280;52745;49.794;18.258;2022-09-23T07:20:53;-16206.47;;;10.08;78.91
65157;BME280;52745;49.794;18.258;2022-09-23T07:23:27;-16209.34;;;10.19;77.71
65157;BME280;52745;49.794;18.258;2022-09-23T07:25:57;-16213.16;;;10.33;77.92
65157;BME280;52745;49.794;18.258;2022-09-23T07:28:24;-16216.31;;;10.45;77.58
65157;BME280;52745;49.794;18.258;2022-09-23T07:31:28;-16212.22;;;10.30;78.51
65157;BME280;52745;49.794;18.258;2022-09-23T07:34:02;-16209.22;;;10.19;77.51
65157;BME280;52745;49.794;18.258;2022-09-23T07:36:29;-16205.66;;;10.05;78.93
65157;BME280;52745;49.794;18.258;2022-09-23T07:38:59;-16211.38;;;10.27;78.05
65157;BME280;52745;49.794;18.258;2022-09-23T07:41:30;-16216.03;;;10.44;77.89
65157;BME280;52745;49.794;18.258;2022-09-23T07:43:57;-16216.72;;;10.47;77.83
65157;BME280;52745;49.794;18.258;2022-09-23T07:46:27;-16219.56;;;10.57;77.17
65157;BME280;52745;49.794;18.258;2022-09-23T07:48:54;-16226.13;;;10.82;76.88
65157;BME280;52745;49.794;18.258;2022-09-23T07:51:27;-16221.47;;;10.65;76.07
65157;BME280;52745;49.794;18.258;2022-09-23T07:53:54;-16223.38;;;10.72;76.35
65157;BME280;52745;49.794;18.258;2022-09-23T07:56:26;-16226.13;;;10.82;76.44
65157;BME280;52745;49.794;18.258;2022-09-23T07:58:54;-16232.78;;;11.07;75.98
65157;BME280;52745;49.794;18.258;2022-09-23T08:01:32;-16262.78;;;12.20;72.01
65157;BME280;52745;49.794;18.258;2022-09-23T08:04:02;-16318.72;;;14.31;63.76
65157;BME280;52745;49.794;18.258;2022-09-23T08:06:29;-16364.69;;;16.04;56.73
65157;BME280;52745;49.794;18.258;2022-09-23T08:08:57;-16408.69;;;17.70;52.54
65157;BME280;52745;49.794;18.258;2022-09-23T08:11:25;-16445.31;;;19.08;48.47
65157;BME280;52745;49.794;18.258;2022-09-23T08:13:53;-16467.53;;;19.92;46.80
65157;BME280;52745;49.794;18.258;2022-09-23T08:16:20;-16488.94;;;20.73;42.77
65157;BME280;52745;49.794;18.258;2022-09-23T08:18:47;-16511.69;;;21.59;42.10
65157;BME280;52745;49.794;18.258;2022-09-23T08:21:21;-16523.59;;;22.04;40.63
65157;BME280;52745;49.794;18.258;2022-09-23T08:23:47;-16514.28;;;21.69;40.84
65157;BME280;52745;49.794;18.258;2022-09-23T08:26:14;-16498.44;;;21.09;41.58
65157;BME280;52745;49.794;18.258;2022-09-23T08:28:43;-16504.66;;;21.33;40.51
65157;BME280;52745;49.794;18.258;2022-09-23T08:31:10;-16533.75;;;22.43;37.90
65157;BME280;52745;49.794;18.258;2022-09-23T08:33:39;-16523.59;;;22.04;38.49
65157;BME280;52745;49.794;18.258;2022-09-23T08:36:06;-16538.22;;;22.60;37.91
65157;BME280;52745;49.794;18.258;2022-09-23T08:38:33;-16552.28;;;23.13;36.38
65157;BME280;52745;49.794;18.258;2022-09-23T08:43:38;-16567.16;;;23.69;35.42
65157;BME280;52745;49.794;18.258;2022-09-23T08:46:10;-16541.19;;;22.71;37.11
65157;BME280;52745;49.794;18.258;2022-09-23T08:48:43;-16568.78;;;23.75;35.77
65157;BME280;52745;49.794;18.258;2022-09-23T08:51:14;-16587.41;;;24.46;34.15
65157;BME280;52745;49.794;18.258;2022-09-23T08:53:42;-16592.28;;;24.65;32.93
65157;BME280;52745;49.794;18.258;2022-09-23T08:56:13;-16589.03;;;24.52;33.65
65157;BME280;52745;49.794;18.258;2022-09-23T08:59:08;-16565.00;;;23.61;34.65
65157;BME280;52745;49.794;18.258;2022-09-23T09:06:52;-16599.84;;;24.93;33.17
65157;BME280;52745;49.794;18.258;2022-09-23T09:09:32;-16609.56;;;25.30;33.43
65157;BME280;52745;49.794;18.258;2022-09-23T09:12:26;-16616.72;;;25.57;33.02
65157;BME280;52745;49.794;18.258;2022-09-23T09:15:06;-16622.78;;;25.80;32.62
65157;BME280;52745;49.794;18.258;2022-09-23T09:28:29;-16616.56;;;25.57;31.82
65157;BME280;52745;49.794;18.258;2022-09-23T09:31:09;-16593.09;;;24.68;33.29
65157;BME280;52745;49.794;18.258;2022-09-23T09:33:58;-16554.84;;;23.23;34.78
65157;BME280;52745;49.794;18.258;2022-09-23T09:37:00;-16556.34;;;23.28;35.61
65157;BME280;52745;49.794;18.258;2022-09-23T09:39:34;-16568.09;;;23.73;33.58
65157;BME280;52745;49.794;18.258;2022-09-23T09:42:01;-16567.97;;;23.72;35.44
65157;BME280;52745;49.794;18.258;2022-09-23T09:44:42;-16511.56;;;21.59;37.97
65157;BME280;52745;49.794;18.258;2022-09-23T09:52:31;-16405.97;;;17.59;47.14
65157;BME280;52745;49.794;18.258;2022-09-23T09:55:24;-16404.88;;;17.55;47.88
65157;BME280;52745;49.794;18.258;2022-09-23T09:57:55;-16404.06;;;17.52;48.60
65157;BME280;52745;49.794;18.258;2022-09-23T10:03:00;-16387.63;;;16.90;52.62
65157;BME280;52745;49.794;18.258;2022-09-23T10:08:26;-16376.09;;;16.47;52.01
65157;BME280;52745;49.794;18.258;2022-09-23T10:13:32;-16365.22;;;16.06;52.81
65157;BME280;52745;49.794;18.258;2022-09-23T10:16:00;-16363.59;;;16.00;54.82
65157;BME280;52745;49.794;18.258;2022-09-23T10:18:30;-16351.63;;;15.55;54.56
65157;BME280;52745;49.794;18.258;2022-09-23T10:21:06;-16348.38;;;15.42;54.53
65157;BME280;52745;49.794;18.258;2022-09-23T10:23:37;-16347.56;;;15.39;53.01
65157;BME280;52745;49.794;18.258;2022-09-23T10:26:06;-16354.63;;;15.66;52.71
65157;BME280;52745;49.794;18.258;2022-09-23T10:31:31;-16356.38;;;15.72;51.05
65157;BME280;52745;49.794;18.258;2022-09-23T10:34:19;-16355.72;;;15.70;52.83
65157;BME280;52745;49.794;18.258;2022-09-23T10:37:01;-16347.81;;;15.40;52.33
65157;BME280;52745;49.794;18.258;2022-09-23T10:39:29;-16390.50;;;17.01;51.21
65157;BME280;52745;49.794;18.258;2022-09-23T10:42:28;-16469.16;;;19.98;46.31
65157;BME280;52745;49.794;18.258;2022-09-23T10:45:25;-16516.03;;;21.76;38.88
65157;BME280;52745;49.794;18.258;2022-09-23T10:50:48;-16510.34;;;21.54;36.93
65157;BME280;52745;49.794;18.258;2022-09-23T11:06:24;-16614.41;;;25.49;30.04
65157;BME280;52745;49.794;18.258;2022-09-23T11:09:26;-16614.69;;;25.50;30.79
65157;BME280;52745;49.794;18.258;2022-09-23T11:12:13;-16607.66;;;25.23;29.95
65157;BME280;52745;49.794;18.258;2022-09-23T11:15:21;-16570.94;;;23.84;31.80
65157;BME280;52745;49.794;18.258;2022-09-23T11:21:22;-16485.03;;;20.58;38.30
65157;BME280;52745;49.794;18.258;2022-09-23T11:24:33;-16448.03;;;19.18;41.80
65157;BME280;52745;49.794;18.258;2022-09-23T11:30:15;-16435.41;;;18.71;45.06
65157;BME280;52745;49.794;18.258;2022-09-23T11:40:37;-16400.41;;;17.38;47.48
65157;BME280;52745;49.794;18.258;2022-09-23T11:43:24;-16397.28;;;17.27;47.34
65157;BME280;52745;49.794;18.258;2022-09-23T11:48:41;-16415.75;;;17.96;47.51
65157;BME280;52745;49.794;18.258;2022-09-23T11:53:54;-16443.41;;;19.01;43.97
65157;BME280;52745;49.794;18.258;2022-09-23T11:56:31;-16471.34;;;20.07;43.49
65157;BME280;52745;49.794;18.258;2022-09-23T12:01:47;-16480.69;;;20.42;39.34
65157;BME280;52745;49.794;18.258;2022-09-23T12:07:03;-16478.94;;;20.35;39.51
65157;BME280;52745;49.794;18.258;2022-09-23T12:09:53;-16484.06;;;20.55;41.28
65157;BME280;52745;49.794;18.258;2022-09-23T12:23:49;-16467.16;;;19.91;37.72
65157;BME280;52745;49.794;18.258;2022-09-23T12:26:14;-16463.34;;;19.76;37.72
65157;BME280;52745;49.794;18.258;2022-09-23T12:28:45;-16460.50;;;19.65;38.99
65157;BME280;52745;49.794;18.258;2022-09-23T12:31:15;-16457.50;;;19.54;41.21
65157;BME280;52745;49.794;18.258;2022-09-23T12:33:51;-16444.22;;;19.04;42.99
65157;BME280;52745;49.794;18.258;2022-09-23T12:36:29;-16451.28;;;19.31;38.69
65157;BME280;52745;49.794;18.258;2022-09-23T12:39:03;-16448.28;;;19.19;42.18
65157;BME280;52745;49.794;18.258;2022-09-23T12:41:34;-16449.09;;;19.22;42.17
65157;BME280;52745;49.794;18.258;2022-09-23T12:44:13;-16441.25;;;18.93;44.27
65157;BME280;52745;49.794;18.258;2022-09-23T12:46:43;-16437.31;;;18.78;41.44
65157;BME280;52745;49.794;18.258;2022-09-23T12:54:41;-16442.19;;;18.96;36.84
65157;BME280;52745;49.794;18.258;2022-09-23T13:02:40;-16427.94;;;18.43;40.71
65157;BME280;52745;49.794;18.258;2022-09-23T13:08:04;-16425.38;;;18.33;38.23
65157;BME280;52745;49.794;18.258;2022-09-23T13:10:38;-16428.75;;;18.46;38.31
65157;BME280;52745;49.794;18.258;2022-09-23T13:13:14;-16430.81;;;18.53;35.07
65157;BME280;52745;49.794;18.258;2022-09-23T13:15:44;-16432.97;;;18.61;35.81
65157;BME280;52745;49.794;18.258;2022-09-23T13:20:51;-16432.69;;;18.60;39.54
65157;BME280;52745;49.794;18.258;2022-09-23T13:23:26;-16440.03;;;18.88;37.04
65157;BME280;52745;49.794;18.258;2022-09-23T13:25:55;-16438.53;;;18.83;38.61
65157;BME280;52745;49.794;18.258;2022-09-23T13:28:40;-16428.34;;;18.44;38.34
65157;BME280;52745;49.794;18.258;2022-09-23T13:31:13;-16420.22;;;18.13;43.58
65157;BME280;52745;49.794;18.258;2022-09-23T13:33:48;-16415.59;;;17.96;36.02
65157;BME280;52745;49.794;18.258;2022-09-23T13:36:17;-16416.28;;;17.98;38.24
65157;BME280;52745;49.794;18.258;2022-09-23T13:38:44;-16411.13;;;17.79;40.67
65157;BME280;52745;49.794;18.258;2022-09-23T13:41:17;-16408.41;;;17.69;36.67
65157;BME280;52745;49.794;18.258;2022-09-23T13:43:54;-16399.03;;;17.33;37.87
65157;BME280;52745;49.794;18.258;2022-09-23T13:48:53;-16394.84;;;17.17;39.02
65157;BME280;52745;49.794;18.258;2022-09-23T13:51:32;-16390.09;;;17.00;38.93
65157;BME280;52745;49.794;18.258;2022-09-23T13:54:01;-16388.72;;;16.94;39.92
65157;BME280;52745;49.794;18.258;2022-09-23T13:56:31;-16389.28;;;16.96;37.86
65157;BME280;52745;49.794;18.258;2022-09-23T14:02:23;-16383.00;;;16.73;36.82
65157;BME280;52745;49.794;18.258;2022-09-23T14:04:50;-16379.34;;;16.59;36.56
65157;BME280;52745;49.794;18.258;2022-09-23T14:07:18;-16378.81;;;16.57;37.88
65157;BME280;52745;49.794;18.258;2022-09-23T14:09:48;-16379.22;;;16.59;38.25
65157;BME280;52745;49.794;18.258;2022-09-23T14:12:15;-16372.97;;;16.35;38.42
65157;BME280;52745;49.794;18.258;2022-09-23T14:14:48;-16363.03;;;15.98;39.79
65157;BME280;52745;49.794;18.258;2022-09-23T14:17:18;-16358.69;;;15.81;40.00
65157;BME280;52745;49.794;18.258;2022-09-23T14:19:46;-16356.94;;;15.75;40.74
65157;BME280;52745;49.794;18.258;2022-09-23T14:22:33;-16357.34;;;15.76;43.18
65157;BME280;52745;49.794;18.258;2022-09-23T14:25:00;-16355.16;;;15.68;40.46
65157;BME280;52745;49.794;18.258;2022-09-23T14:27:32;-16352.56;;;15.58;40.22
65157;BME280;52745;49.794;18.258;2022-09-23T14:30:02;-16348.63;;;15.43;42.05
65157;BME280;52745;49.794;18.258;2022-09-23T14:32:30;-16345.78;;;15.32;40.02
65157;BME280;52745;49.794;18.258;2022-09-23T14:40:36;-16343.47;;;15.24;41.63
65157;BME280;52745;49.794;18.258;2022-09-23T14:43:27;-16345.38;;;15.31;42.39
65157;BME280;52745;49.794;18.258;2022-09-23T14:45:56;-16344.97;;;15.29;40.45
65157;BME280;52745;49.794;18.258;2022-09-23T14:48:30;-16343.75;;;15.25;40.27
65157;BME280;52745;49.794;18.258;2022-09-23T14:51:00;-16343.75;;;15.25;40.09
65157;BME280;52745;49.794;18.258;2022-09-23T14:53:40;-16342.66;;;15.21;38.65
65157;BME280;52745;49.794;18.258;2022-09-23T14:56:12;-16341.97;;;15.18;39.94
65157;BME280;52745;49.794;18.258;2022-09-23T15:06:40;-16334.63;;;14.90;41.16
65157;BME280;52745;49.794;18.258;2022-09-23T15:09:16;-16333.69;;;14.87;39.01
65157;BME280;52745;49.794;18.258;2022-09-23T15:11:45;-16332.31;;;14.82;39.48
65157;BME280;52745;49.794;18.258;2022-09-23T15:14:12;-16331.38;;;14.78;40.14
65157;BME280;52745;49.794;18.258;2022-09-23T15:16:39;-16330.56;;;14.75;39.66
65157;BME280;52745;49.794;18.258;2022-09-23T15:19:14;-16330.41;;;14.75;41.50
65157;BME280;52745;49.794;18.258;2022-09-23T15:21:44;-16328.09;;;14.66;40.21
65157;BME280;52745;49.794;18.258;2022-09-23T15:24:44;-16326.06;;;14.58;40.95
65157;BME280;52745;49.794;18.258;2022-09-23T15:29:49;-16323.88;;;14.50;41.50
65157;BME280;52745;49.794;18.258;2022-09-23T15:32:16;-16322.81;;;14.46;42.70
65157;BME280;52745;49.794;18.258;2022-09-23T15:34:42;-16322.53;;;14.45;42.96
65157;BME280;52745;49.794;18.258;2022-09-23T15:37:11;-16321.72;;;14.42;43.04
65157;BME280;52745;49.794;18.258;2022-09-23T15:39:38;-16321.97;;;14.43;42.91
65157;BME280;52745;49.794;18.258;2022-09-23T15:42:04;-16321.16;;;14.40;43.83
65157;BME280;52745;49.794;18.258;2022-09-23T15:44:35;-16319.81;;;14.35;42.39
65157;BME280;52745;49.794;18.258;2022-09-23T15:47:03;-16318.44;;;14.29;44.51
65157;BME280;52745;49.794;18.258;2022-09-23T15:49:37;-16316.00;;;14.20;45.63
65157;BME280;52745;49.794;18.258;2022-09-23T15:52:08;-16314.22;;;14.14;42.56
65157;BME280;52745;49.794;18.258;2022-09-23T15:54:35;-16312.88;;;14.08;44.60
65157;BME280;52745;49.794;18.258;2022-09-23T15:57:02;-16311.38;;;14.03;43.78
65157;BME280;52745;49.794;18.258;2022-09-23T15:59:29;-16309.75;;;13.97;44.57
65157;BME280;52745;49.794;18.258;2022-09-23T16:01:58;-16306.75;;;13.85;45.85